createdAt,value
2016-02-03T13:12:42.618Z,992.42
2016-02-03T13:13:42.557Z,992.45
2016-02-03T13:14:42.546Z,992.38
2016-02-03T13:15:42.532Z,992.45
2016-02-03T13:16:42.534Z,992.38
2016-02-03T13:17:42.522Z,992.24
2016-02-03T13:18:42.528Z,992.21
2016-02-03T13:19:42.515Z,992.21
2016-02-03T13:20:42.502Z,992.23
2016-02-03T13:21:42.524Z,992.23
2016-02-03T13:22:42.511Z,992.28
2016-02-03T13:23:42.498Z,992.21
2016-02-03T13:24:42.501Z,992.26
2016-02-03T13:25:42.487Z,992.28
2016-02-03T13:26:42.493Z,992.32
2016-02-03T13:27:42.479Z,992.33
2016-02-03T13:28:42.484Z,992.3
2016-02-03T13:29:42.486Z,992.31
2016-02-03T13:30:42.475Z,992.26
2016-02-03T13:31:42.477Z,992.26
2016-02-03T13:32:42.495Z,992.23
2016-02-03T13:33:42.485Z,992.21
2016-02-03T13:34:42.471Z,992.17
2016-02-03T13:35:42.474Z,992.18
2016-02-03T13:36:42.478Z,992.14
2016-02-03T13:37:42.480Z,992.12
2016-02-03T13:38:42.467Z,992.08
2016-02-03T13:39:42.469Z,992.04
2016-02-03T13:40:42.475Z,992.06
2016-02-03T13:41:42.477Z,992.04
2016-02-03T13:42:42.481Z,992.04
2016-02-03T13:43:42.483Z,992
2016-02-03T13:44:42.471Z,991.96
2016-02-03T13:45:42.474Z,991.93
2016-02-03T13:46:42.477Z,991.97
2016-02-03T13:47:42.480Z,991.99
2016-02-03T13:48:42.483Z,991.98
2016-02-03T13:49:42.486Z,991.94
2016-02-03T13:50:42.489Z,991.98
2016-02-03T13:51:42.491Z,992.03
2016-02-03T13:52:42.496Z,992.05
2016-02-03T13:53:42.514Z,992.22
2016-02-03T13:54:42.501Z,992.25
2016-02-03T13:55:42.488Z,992.28
2016-02-03T13:56:42.488Z,992.3
2016-02-03T13:57:42.492Z,992.31
2016-02-03T13:58:42.495Z,992.34
2016-02-03T13:59:42.497Z,992.25
2016-02-03T14:00:42.488Z,992.28
2016-02-03T14:01:42.521Z,992.3
2016-02-03T14:02:42.494Z,992.29
2016-02-03T14:03:42.496Z,992.17
2016-02-03T14:04:42.499Z,992.2
2016-02-03T14:05:42.502Z,992.19
2016-02-03T14:06:42.505Z,992.18
2016-02-03T14:07:42.507Z,992.2
2016-02-03T14:08:42.510Z,992.17
2016-02-03T14:09:42.513Z,992.17
2016-02-03T14:10:42.500Z,992.13
2016-02-03T14:11:42.503Z,992.16
2016-02-03T14:12:42.508Z,992.16
2016-02-03T14:13:42.510Z,992.2
2016-02-03T14:14:42.513Z,992.21
2016-02-03T14:15:42.516Z,992.18
2016-02-03T14:16:42.518Z,992.28
2016-02-03T14:17:42.521Z,992.27
2016-02-03T14:18:42.525Z,992.29
2016-02-03T14:19:42.527Z,992.31
2016-02-03T14:20:42.530Z,992.31
2016-02-03T14:21:42.533Z,992.37
2016-02-03T14:22:42.518Z,992.41
2016-02-03T14:23:42.538Z,992.47
2016-02-03T14:24:42.524Z,992.53
2016-02-03T14:25:42.527Z,992.66
2016-02-03T14:26:42.529Z,992.69
2016-02-03T14:27:42.547Z,992.88
2016-02-03T14:28:42.534Z,992.85
2016-02-03T14:29:42.529Z,992.99
2016-02-03T14:30:42.531Z,992.99
2016-02-03T14:31:42.536Z,992.99
2016-02-03T14:32:42.538Z,993.21
2016-02-03T14:33:42.541Z,993.07
2016-02-03T14:34:42.527Z,993.21
2016-02-03T14:35:42.530Z,993.19
2016-02-03T14:36:42.535Z,993.24
2016-02-03T14:37:42.522Z,993.22
2016-02-03T14:38:42.540Z,993.23
2016-02-03T14:39:42.528Z,993.19
2016-02-03T14:40:42.531Z,993.17
2016-02-03T14:41:42.533Z,993.28
2016-02-03T14:42:42.520Z,993.31
2016-02-03T14:43:42.524Z,993.29
2016-02-03T14:44:42.526Z,993.34
2016-02-03T14:45:42.530Z,993.38
2016-02-03T14:46:42.532Z,993.42
2016-02-03T14:47:42.518Z,993.43
2016-02-03T14:48:42.521Z,993.48
2016-02-03T14:49:42.524Z,993.55
2016-02-03T14:50:42.527Z,993.48
2016-02-03T14:51:42.514Z,993.55
2016-02-03T14:52:42.501Z,993.59
2016-02-03T14:53:42.520Z,993.51
2016-02-03T14:54:42.506Z,993.5
2016-02-03T14:55:42.513Z,993.56
2016-02-03T14:56:42.515Z,993.54
2016-02-03T14:57:42.501Z,993.56
2016-02-03T14:58:42.504Z,993.6
2016-02-03T14:59:42.507Z,993.56
2016-02-03T15:00:42.496Z,993.57
2016-02-03T15:01:42.513Z,993.53
2016-02-03T15:02:42.485Z,993.54
2016-02-03T15:03:42.488Z,993.58
2016-02-03T15:04:42.492Z,993.58
2016-02-03T15:05:42.494Z,993.65
2016-02-03T15:06:42.482Z,993.62
2016-02-03T15:07:42.689Z,993.61
2016-02-03T15:08:42.488Z,993.59
2016-02-03T15:09:42.476Z,993.6
2016-02-03T15:10:42.479Z,993.63
2016-02-03T15:11:42.481Z,993.59
2016-02-03T15:12:42.468Z,993.64
2016-02-03T15:13:42.471Z,993.66
2016-02-03T15:14:42.475Z,993.6
2016-02-03T15:15:42.478Z,993.68
2016-02-03T15:16:42.467Z,993.67
2016-02-03T15:17:42.470Z,993.66
2016-02-03T15:18:42.456Z,993.67
2016-02-03T15:19:42.459Z,993.71
2016-02-03T15:20:42.839Z,993.71
2016-02-03T15:21:42.466Z,993.71
2016-02-03T15:22:42.453Z,993.69
2016-02-03T15:23:42.455Z,993.79
2016-02-03T15:24:42.459Z,993.69
2016-02-03T15:25:42.461Z,993.77
2016-02-03T15:26:42.464Z,993.79
2016-02-03T15:27:42.451Z,993.73
2016-02-03T15:28:42.469Z,993.75
2016-02-03T15:29:42.457Z,993.79
2016-02-03T15:30:42.443Z,993.77
2016-02-03T15:31:42.963Z,993.82
2016-02-03T15:32:42.449Z,993.85
2016-02-03T15:33:42.435Z,993.83
2016-02-03T15:34:42.438Z,993.84
2016-02-03T15:35:42.441Z,993.85
2016-02-03T15:36:42.444Z,993.88
2016-02-03T15:37:42.432Z,993.96
2016-02-03T15:38:42.435Z,993.98
2016-02-03T15:39:42.438Z,994.01
2016-02-03T15:40:43.080Z,994.04
2016-02-03T15:41:42.427Z,994.03
2016-02-03T15:42:42.430Z,994.04
2016-02-03T15:43:42.449Z,994.12
2016-02-03T15:44:42.435Z,994.12
2016-02-03T15:45:42.438Z,994.15
2016-02-03T15:46:42.430Z,994.22
2016-02-03T15:47:42.433Z,994.19
2016-02-03T15:48:42.435Z,994.22
2016-02-03T15:49:42.423Z,994.26
2016-02-03T15:50:42.426Z,994.33
2016-02-03T15:51:42.412Z,994.37
2016-02-03T15:52:42.431Z,994.35
2016-02-03T15:53:42.434Z,994.37
2016-02-03T15:54:42.420Z,994.49
2016-02-03T15:55:42.423Z,994.44
2016-02-03T15:56:42.410Z,994.5
2016-02-03T15:57:42.413Z,994.5
2016-02-03T15:58:42.417Z,994.54
2016-02-03T15:59:42.419Z,994.56
2016-02-03T16:00:42.406Z,994.56
2016-02-03T16:01:42.425Z,994.64
2016-02-03T16:02:42.412Z,994.65
2016-02-03T16:03:42.399Z,994.74
2016-02-03T16:04:42.402Z,994.69
2016-02-03T16:05:42.405Z,994.71
2016-02-03T16:06:42.407Z,994.7
2016-02-03T16:07:42.410Z,994.72
2016-02-03T16:08:42.416Z,994.75
2016-02-03T16:09:42.386Z,994.71
2016-02-03T16:10:42.360Z,994.68
2016-02-03T16:11:42.330Z,994.73
2016-02-03T16:12:42.317Z,994.67
2016-02-03T16:13:42.313Z,994.65
2016-02-03T16:14:42.293Z,994.69
2016-02-03T16:15:42.306Z,994.74
2016-02-03T16:16:42.288Z,994.76
2016-02-03T16:17:42.285Z,994.77
2016-02-03T16:18:43.459Z,994.81
2016-02-03T16:19:42.272Z,994.8
2016-02-03T16:20:42.320Z,994.88
2016-02-03T16:21:42.274Z,994.82
2016-02-03T16:22:42.259Z,994.85
2016-02-03T16:23:43.530Z,994.92
2016-02-03T16:24:42.266Z,994.91
2016-02-03T16:25:42.255Z,994.9
2016-02-03T16:26:42.257Z,994.99
2016-02-03T16:27:42.258Z,995.03
2016-02-03T16:28:42.260Z,995
2016-02-03T16:29:42.247Z,995.06
2016-02-03T16:30:42.265Z,995.03
2016-02-03T16:31:42.268Z,995.03
2016-02-03T16:32:43.661Z,995.02
2016-02-03T16:33:42.241Z,995.09
2016-02-03T16:34:42.245Z,995.05
2016-02-03T16:35:42.247Z,995.24
2016-02-03T16:36:42.234Z,995.13
2016-02-03T16:37:42.237Z,995.19
2016-02-03T16:38:42.239Z,995.12
2016-02-03T16:39:42.242Z,995.14
2016-02-03T16:40:42.230Z,995.21
2016-02-03T16:41:42.248Z,995.25
2016-02-03T16:42:42.222Z,995.21
2016-02-03T16:43:42.225Z,995.26
2016-02-03T16:44:43.822Z,995.27
2016-02-03T16:45:42.214Z,995.3
2016-02-03T16:46:42.217Z,995.32
2016-02-03T16:47:42.253Z,995.36
2016-02-03T16:48:43.880Z,995.37
2016-02-03T16:49:42.209Z,995.36
2016-02-03T16:50:42.212Z,995.34
2016-02-03T16:51:42.199Z,995.36
2016-02-03T16:52:42.202Z,995.32
2016-02-03T16:53:42.204Z,995.35
2016-02-03T16:54:42.192Z,995.37
2016-02-03T16:55:42.195Z,995.4
2016-02-03T16:56:42.198Z,995.41
2016-02-03T16:57:42.195Z,995.4
2016-02-03T16:58:42.197Z,995.37
2016-02-03T16:59:42.184Z,995.43
2016-02-03T17:00:42.203Z,995.43
2016-02-03T17:01:42.190Z,995.41
2016-02-03T17:02:42.177Z,995.44
2016-02-03T17:03:42.179Z,995.47
2016-02-03T17:04:42.182Z,995.47
2016-02-03T17:05:42.170Z,995.51
2016-02-03T17:06:42.173Z,995.49
2016-02-03T17:07:42.176Z,995.52
2016-02-03T17:08:42.178Z,995.53
2016-02-03T17:09:42.166Z,995.63
2016-02-03T17:10:42.169Z,995.63
2016-02-03T17:11:42.172Z,995.64
2016-02-03T17:12:42.158Z,995.66
2016-02-03T17:13:42.161Z,995.66
2016-02-03T17:14:42.165Z,995.7
2016-02-03T17:15:44.184Z,995.75
2016-02-03T17:16:42.156Z,995.77
2016-02-03T17:17:42.158Z,995.85
2016-02-03T17:18:42.161Z,995.79
2016-02-03T17:19:42.147Z,995.86
2016-02-03T17:20:42.150Z,995.85
2016-02-03T17:21:42.154Z,995.94
2016-02-03T17:22:42.142Z,995.92
2016-02-03T17:23:42.145Z,995.94
2016-02-03T17:24:42.147Z,995.92
2016-02-03T17:25:42.133Z,995.94
2016-02-03T17:26:42.137Z,995.93
2016-02-03T17:27:44.326Z,995.93
2016-02-03T17:28:42.126Z,995.99
2016-02-03T17:29:42.128Z,995.98
2016-02-03T17:30:42.131Z,995.97
2016-02-03T17:31:42.119Z,995.98
2016-02-03T17:32:42.137Z,996
2016-02-03T17:33:42.125Z,995.97
2016-02-03T17:34:42.128Z,996.02
2016-02-03T17:35:42.115Z,996.03
2016-02-03T17:36:42.117Z,996.09
2016-02-03T17:37:42.120Z,996.07
2016-02-03T17:38:42.112Z,996.14
2016-02-03T17:39:42.114Z,996.14
2016-02-03T17:40:42.104Z,996.13
2016-02-03T17:41:42.107Z,996.11
2016-02-03T17:42:42.125Z,996.15
2016-02-03T17:43:42.112Z,996.23
2016-02-03T17:44:42.099Z,996.22
2016-02-03T17:45:42.101Z,996.24
2016-02-03T17:46:42.089Z,996.25
2016-02-03T17:47:42.091Z,996.28
2016-02-03T17:48:42.100Z,996.28
2016-02-03T17:49:42.103Z,996.26
2016-02-03T17:50:42.090Z,996.32
2016-02-03T17:51:42.093Z,996.3
2016-02-03T17:52:42.081Z,996.34
2016-02-03T17:53:42.083Z,996.39
2016-02-03T17:54:42.086Z,996.43
2016-02-03T17:55:42.088Z,996.42
2016-02-03T17:56:42.075Z,996.5
2016-02-03T17:57:42.094Z,996.52
2016-02-03T17:58:42.066Z,996.54
2016-02-03T17:59:42.068Z,996.55
2016-02-03T18:00:42.071Z,996.54
2016-02-03T18:01:42.074Z,996.57
2016-02-03T18:02:42.060Z,996.65
2016-02-03T18:03:42.063Z,996.65
2016-02-03T18:04:42.066Z,996.58
2016-02-03T18:05:42.073Z,996.66
2016-02-03T18:06:42.060Z,996.66
2016-02-03T18:07:42.062Z,996.69
2016-02-03T18:08:42.050Z,996.76
2016-02-03T18:09:42.053Z,996.79
2016-02-03T18:10:42.056Z,996.78
2016-02-03T18:11:42.058Z,996.84
2016-02-03T18:12:42.048Z,996.82
2016-02-03T18:13:44.816Z,996.84
2016-02-03T18:14:42.053Z,996.89
2016-02-03T18:15:42.056Z,996.88
2016-02-03T18:16:42.042Z,996.93
2016-02-03T18:17:42.048Z,996.98
2016-02-03T18:18:42.036Z,996.96
2016-02-03T18:19:42.040Z,996.98
2016-02-03T18:20:42.043Z,996.99
2016-02-03T18:21:42.029Z,996.95
2016-02-03T18:22:42.031Z,996.99
2016-02-03T18:23:42.066Z,996.96
2016-02-03T18:24:42.024Z,996.96
2016-02-03T18:25:42.027Z,996.96
2016-02-03T18:26:44.421Z,996.95
2016-02-03T18:27:42.017Z,996.92
2016-02-03T18:28:42.020Z,996.89
2016-02-03T18:29:42.024Z,996.9
2016-02-03T18:30:42.010Z,996.93
2016-02-03T18:31:42.014Z,996.93
2016-02-03T18:32:42.016Z,996.96
2016-02-03T18:33:42.003Z,996.94
2016-02-03T18:34:42.006Z,996.89
2016-02-03T18:35:42.008Z,996.89
2016-02-03T18:36:41.999Z,996.91
2016-02-03T18:37:44.283Z,996.95
2016-02-03T18:38:41.993Z,996.98
2016-02-03T18:39:41.984Z,997.02
2016-02-03T18:40:44.252Z,996.93
2016-02-03T18:41:41.989Z,997.03
2016-02-03T18:42:41.977Z,996.95
2016-02-03T18:43:41.979Z,997
2016-02-03T18:44:41.982Z,997.1
2016-02-03T18:45:41.985Z,997.13
2016-02-03T18:46:41.971Z,997.15
2016-02-03T18:47:41.974Z,997.2
2016-02-03T18:48:41.961Z,997.21
2016-02-03T18:49:41.964Z,997.27
2016-02-03T18:50:41.951Z,997.34
2016-02-03T18:51:41.954Z,997.39
2016-02-03T18:52:44.393Z,997.34
2016-02-03T18:53:41.960Z,997.42
2016-02-03T18:54:41.946Z,997.53
2016-02-03T18:55:41.949Z,997.5
2016-02-03T18:56:41.952Z,997.56
2016-02-03T18:57:41.943Z,997.61
2016-02-03T18:58:41.963Z,997.61
2016-02-03T18:59:41.950Z,997.61
2016-02-03T19:00:41.953Z,997.61
2016-02-03T19:01:41.922Z,997.61
2016-02-03T19:02:41.924Z,997.68
2016-02-03T19:03:41.928Z,997.69
2016-02-03T19:04:41.915Z,997.69
2016-02-03T19:05:41.918Z,997.77
2016-02-03T19:06:41.905Z,997.72
2016-02-03T19:07:41.907Z,997.75
2016-02-03T19:08:41.911Z,997.78
2016-02-03T19:09:41.898Z,997.81
2016-02-03T19:10:41.901Z,997.84
2016-02-03T19:11:41.903Z,997.88
2016-02-03T19:12:41.891Z,997.86
2016-02-03T19:13:41.895Z,997.86
2016-02-03T19:14:41.898Z,997.86
2016-02-03T19:15:41.886Z,997.86
2016-02-03T19:16:41.888Z,997.92
2016-02-03T19:17:41.891Z,997.89
2016-02-03T19:18:41.880Z,997.87
2016-02-03T19:19:41.868Z,997.81
2016-02-03T19:20:41.870Z,997.88
2016-02-03T19:21:41.873Z,997.89
2016-02-03T19:22:41.859Z,997.91
2016-02-03T19:23:41.866Z,997.94
2016-02-03T19:24:41.868Z,997.91
2016-02-03T19:25:41.855Z,997.95
2016-02-03T19:26:41.857Z,997.97
2016-02-03T19:27:41.879Z,998.04
2016-02-03T19:28:41.851Z,997.98
2016-02-03T19:29:44.807Z,998.03
2016-02-03T19:30:41.840Z,998.03
2016-02-03T19:31:41.843Z,998.01
2016-02-03T19:32:44.846Z,998.03
2016-02-03T19:33:41.834Z,997.96
2016-02-03T19:34:41.836Z,998.03
2016-02-03T19:35:41.841Z,997.99
2016-02-03T19:36:41.834Z,998.01
2016-02-03T19:37:41.821Z,998.02
2016-02-03T19:38:41.824Z,997.99
2016-02-03T19:39:41.812Z,998.03
2016-02-03T19:40:44.908Z,998.03
2016-02-03T19:41:41.816Z,998.02
2016-02-03T19:42:41.820Z,998.03
2016-02-03T19:43:41.807Z,998.09
2016-02-03T19:44:41.813Z,998.07
2016-02-03T19:45:41.799Z,998.12
2016-02-03T19:46:41.803Z,998.15
2016-02-03T19:47:41.792Z,998.19
2016-02-03T19:48:41.795Z,998.21
2016-02-03T19:49:41.799Z,998.19
2016-02-03T19:50:41.787Z,998.21
2016-02-03T19:51:41.790Z,998.3
2016-02-03T19:52:45.169Z,998.34
2016-02-03T19:53:41.770Z,998.41
2016-02-03T19:54:41.775Z,998.47
2016-02-03T19:55:41.763Z,998.54
2016-02-03T19:56:41.765Z,998.54
2016-02-03T19:57:41.752Z,998.57
2016-02-03T19:58:41.755Z,998.51
2016-02-03T19:59:41.758Z,998.52
2016-02-03T20:00:41.762Z,998.56
2016-02-03T20:01:41.748Z,998.53
2016-02-03T20:02:41.735Z,998.55
2016-02-03T20:03:41.739Z,998.53
2016-02-03T20:04:41.741Z,998.48
2016-02-03T20:05:41.728Z,998.47
2016-02-03T20:06:41.730Z,998.51
2016-02-03T20:07:41.733Z,998.48
2016-02-03T20:08:41.720Z,998.51
2016-02-03T20:09:41.723Z,998.47
2016-02-03T20:10:41.710Z,998.53
2016-02-03T20:11:41.713Z,998.53
2016-02-03T20:12:41.699Z,998.48
2016-02-03T20:13:41.702Z,998.47
2016-02-03T20:14:41.705Z,998.49
2016-02-03T20:15:41.708Z,998.5
2016-02-03T20:16:41.695Z,998.54
2016-02-03T20:17:41.682Z,998.5
2016-02-03T20:18:41.685Z,998.54
2016-02-03T20:19:41.674Z,998.55
2016-02-03T20:20:41.677Z,998.58
2016-02-03T20:21:41.681Z,998.62
2016-02-03T20:22:41.683Z,998.62
2016-02-03T20:23:41.671Z,998.64
2016-02-03T20:24:41.673Z,998.57
2016-02-03T20:25:41.660Z,998.61
2016-02-03T20:26:41.663Z,998.65
2016-02-03T20:27:41.650Z,998.65
2016-02-03T20:28:41.669Z,998.68
2016-02-03T20:29:41.656Z,998.69
2016-02-03T20:30:41.644Z,998.65
2016-02-03T20:31:41.647Z,998.64
2016-02-03T20:32:41.633Z,998.68
2016-02-03T20:33:41.638Z,998.74
2016-02-03T20:34:41.874Z,998.81
2016-02-03T20:35:41.624Z,998.87
2016-02-03T20:36:41.626Z,998.91
2016-02-03T20:37:41.629Z,999
2016-02-03T20:38:41.632Z,998.99
2016-02-03T20:39:45.138Z,998.96
2016-02-03T20:40:41.623Z,999.05
2016-02-03T20:41:41.626Z,999.08
2016-02-03T20:42:45.096Z,999.1
2016-02-03T20:43:41.615Z,999.08
2016-02-03T20:44:41.603Z,999.09
2016-02-03T20:45:41.605Z,999.17
2016-02-03T20:46:41.608Z,999.21
2016-02-03T20:47:41.596Z,999.25
2016-02-03T20:48:41.598Z,999.26
2016-02-03T20:49:41.601Z,999.27
2016-02-03T20:50:41.588Z,999.29
2016-02-03T20:51:41.592Z,999.33
2016-02-03T20:52:41.596Z,999.37
2016-02-03T20:53:41.583Z,999.42
2016-02-03T20:54:41.586Z,999.46
2016-02-03T20:55:41.589Z,999.43
2016-02-03T20:56:41.576Z,999.38
2016-02-03T20:57:41.578Z,999.35
2016-02-03T20:58:41.597Z,999.32
2016-02-03T20:59:41.568Z,999.24
2016-02-03T21:00:41.570Z,999.28
2016-02-03T21:01:41.573Z,999.28
2016-02-03T21:02:41.561Z,999.28
2016-02-03T21:03:41.579Z,999.34
2016-02-03T21:04:41.567Z,999.37
2016-02-03T21:05:41.554Z,999.35
2016-02-03T21:06:41.556Z,999.32
2016-02-03T21:07:41.559Z,999.31
2016-02-03T21:08:41.546Z,999.25
2016-02-03T21:09:41.549Z,999.31
2016-02-03T21:10:41.551Z,999.29
2016-02-03T21:11:41.553Z,999.38
2016-02-03T21:12:41.541Z,999.38
2016-02-03T21:13:41.545Z,999.43
2016-02-03T21:14:41.548Z,999.39
2016-02-03T21:15:41.551Z,999.4
2016-02-03T21:16:41.537Z,999.42
2016-02-03T21:17:41.540Z,999.52
2016-02-03T21:18:41.528Z,999.5
2016-02-03T21:19:41.531Z,999.52
2016-02-03T21:20:41.535Z,999.54
2016-02-03T21:21:41.525Z,999.55
2016-02-03T21:22:41.528Z,999.5
2016-02-03T21:23:41.515Z,999.52
2016-02-03T21:24:41.518Z,999.51
2016-02-03T21:25:41.521Z,999.48
2016-02-03T21:26:41.507Z,999.48
2016-02-03T21:27:41.510Z,999.46
2016-02-03T21:28:41.513Z,999.5
2016-02-03T21:29:41.500Z,999.48
2016-02-03T21:30:41.518Z,999.52
2016-02-03T21:31:41.506Z,999.45
2016-02-03T21:32:41.493Z,999.51
2016-02-03T21:33:41.495Z,999.5
2016-02-03T21:34:41.499Z,999.54
2016-02-03T21:35:44.080Z,999.53
2016-02-03T21:36:41.489Z,999.48
2016-02-03T21:37:41.492Z,999.51
2016-02-03T21:38:41.478Z,999.54
2016-02-03T21:39:44.090Z,999.49
2016-02-03T21:40:41.484Z,999.45
2016-02-03T21:41:41.504Z,999.44
2016-02-03T21:42:41.475Z,999.46
2016-02-03T21:43:41.478Z,999.48
2016-02-03T21:44:41.466Z,999.5
2016-02-03T21:45:41.468Z,999.57
2016-02-03T21:46:41.472Z,999.54
2016-02-03T21:47:41.459Z,999.58
2016-02-03T21:48:41.462Z,999.61
2016-02-03T21:49:41.464Z,999.64
2016-02-03T21:50:41.452Z,999.67
2016-02-03T21:51:41.458Z,999.71
2016-02-03T21:52:44.133Z,999.71
2016-02-03T21:53:41.451Z,999.67
2016-02-03T21:54:41.455Z,999.74
2016-02-03T21:55:41.457Z,999.76
2016-02-03T21:56:41.445Z,999.79
2016-02-03T21:57:41.431Z,999.74
2016-02-03T21:58:41.434Z,999.77
2016-02-03T21:59:41.437Z,999.83
2016-02-03T22:00:44.205Z,999.86
2016-02-03T22:01:41.424Z,999.85
2016-02-03T22:02:41.411Z,999.83
2016-02-03T22:03:41.414Z,999.78
2016-02-03T22:04:41.416Z,999.73
2016-02-03T22:05:41.419Z,999.7
2016-02-03T22:06:41.411Z,999.74
2016-02-03T22:07:41.399Z,999.68
2016-02-03T22:08:41.402Z,999.7
2016-02-03T22:09:41.404Z,999.69
2016-02-03T22:10:41.407Z,999.72
2016-02-03T22:11:41.393Z,999.74
2016-02-03T22:12:41.396Z,999.67
2016-02-03T22:13:44.196Z,999.72
2016-02-03T22:14:41.385Z,999.72
2016-02-03T22:15:41.388Z,999.75
2016-02-03T22:16:41.391Z,999.75
2016-02-03T22:17:41.379Z,999.8
2016-02-03T22:18:41.381Z,999.83
2016-02-03T22:19:41.368Z,999.85
2016-02-03T22:20:41.371Z,999.85
2016-02-03T22:21:41.375Z,999.87
2016-02-03T22:22:41.363Z,999.91
2016-02-03T22:23:41.366Z,999.9
2016-02-03T22:24:41.352Z,999.92
2016-02-03T22:25:41.356Z,999.95
2016-02-03T22:26:41.359Z,999.94
2016-02-03T22:27:41.361Z,999.97
2016-02-03T22:28:41.348Z,1000.03
2016-02-03T22:29:41.351Z,1000.03
2016-02-03T22:30:41.340Z,1000.08
2016-02-03T22:31:41.358Z,1000.06
2016-02-03T22:32:41.348Z,1000.07
2016-02-03T22:33:41.335Z,1000.09
2016-02-03T22:34:41.338Z,1000.11
2016-02-03T22:35:41.325Z,1000.11
2016-02-03T22:36:41.327Z,1000.1
2016-02-03T22:37:41.331Z,1000.1
2016-02-03T22:38:41.319Z,1000.03
2016-02-03T22:39:41.321Z,1000.07
2016-02-03T22:40:41.324Z,1000.08
2016-02-03T22:41:41.311Z,1000.09
2016-02-03T22:42:41.319Z,1000.08
2016-02-03T22:43:41.305Z,1000.03
2016-02-03T22:44:41.308Z,1000.08
2016-02-03T22:45:41.313Z,1000.06
2016-02-03T22:46:41.316Z,1000.03
2016-02-03T22:47:41.303Z,1000.05
2016-02-03T22:48:41.306Z,1000.07
2016-02-03T22:49:41.290Z,1000.08
2016-02-03T22:50:41.297Z,1000.07
2016-02-03T22:51:41.293Z,1000.1
2016-02-03T22:52:41.293Z,1000.11
2016-02-03T22:53:43.462Z,1000.12
2016-02-03T22:54:41.289Z,1000.16
2016-02-03T22:55:41.277Z,1000.17
2016-02-03T22:56:41.279Z,1000.17
2016-02-03T22:57:41.297Z,1000.19
2016-02-03T22:58:44.691Z,1000.22
2016-02-03T22:59:41.273Z,1000.24
2016-02-03T23:00:41.261Z,1000.22
2016-02-03T23:01:41.247Z,1000.23
2016-02-03T23:02:41.266Z,1000.16
2016-02-03T23:03:41.252Z,1000.18
2016-02-03T23:04:41.249Z,1000.14
2016-02-03T23:05:41.253Z,1000.16
2016-02-03T23:06:41.239Z,1000.15
2016-02-03T23:07:41.242Z,1000.09
2016-02-03T23:08:41.230Z,1000.12
2016-02-03T23:09:41.233Z,1000.13
2016-02-03T23:10:41.236Z,1000.11
2016-02-03T23:11:41.222Z,1000.2
2016-02-03T23:12:44.835Z,1000.13
2016-02-03T23:13:41.213Z,1000.25
2016-02-03T23:14:41.215Z,1000.27
2016-02-03T23:15:41.218Z,1000.25
2016-02-03T23:16:41.222Z,1000.26
2016-02-03T23:17:41.209Z,1000.34
2016-02-03T23:18:41.199Z,1000.31
2016-02-03T23:19:41.201Z,1000.29
2016-02-03T23:20:41.204Z,1000.33
2016-02-03T23:21:41.193Z,1000.36
2016-02-03T23:22:41.195Z,1000.31
2016-02-03T23:23:41.198Z,1000.32
2016-02-03T23:24:44.935Z,1000.31
2016-02-03T23:25:41.187Z,1000.26
2016-02-03T23:26:41.174Z,1000.24
2016-02-03T23:27:41.177Z,1000.27
2016-02-03T23:28:41.179Z,1000.23
2016-02-03T23:29:41.185Z,1000.21
2016-02-03T23:30:41.154Z,1000.24
2016-02-03T23:31:41.175Z,1000.26
2016-02-03T23:32:41.159Z,1000.23
2016-02-03T23:33:41.146Z,1000.2
2016-02-03T23:34:41.150Z,1000.16
2016-02-03T23:35:41.152Z,1000.13
2016-02-03T23:36:41.140Z,1000.09
2016-02-03T23:37:41.143Z,1000.12
2016-02-03T23:38:41.130Z,1000.19
2016-02-03T23:39:41.133Z,1000.11
2016-02-03T23:40:41.120Z,1000.1
2016-02-03T23:41:41.123Z,1000.13
2016-02-03T23:42:41.126Z,1000.12
2016-02-03T23:43:41.129Z,1000.15
2016-02-03T23:44:41.116Z,1000.12
2016-02-03T23:45:41.103Z,1000.15
2016-02-03T23:46:41.122Z,1000.14
2016-02-03T23:47:41.096Z,1000.13
2016-02-03T23:48:41.100Z,1000.12
2016-02-03T23:49:41.119Z,1000.14
2016-02-03T23:50:41.105Z,1000.15
2016-02-03T23:51:41.093Z,1000.13
2016-02-03T23:52:41.079Z,1000.12
2016-02-03T23:53:41.086Z,1000.15
2016-02-03T23:54:41.072Z,1000.16
2016-02-03T23:55:41.075Z,1000.16
2016-02-03T23:56:41.078Z,1000.13
2016-02-03T23:57:41.080Z,1000.07
2016-02-03T23:58:45.318Z,1000.13
2016-02-03T23:59:41.071Z,1000.06
